createdAt,value
2018-04-08T00:01:28.470Z,15.80
2018-04-08T00:04:01.093Z,15.00
2018-04-08T00:06:33.684Z,16.37
2018-04-08T00:09:06.304Z,13.80
2018-04-08T00:11:38.896Z,15.77
2018-04-08T00:14:11.539Z,15.10
2018-04-08T00:16:44.913Z,12.80
2018-04-08T00:19:17.539Z,16.67
2018-04-08T00:21:50.916Z,12.30
2018-04-08T00:24:23.539Z,14.23
2018-04-08T00:26:56.910Z,12.50
2018-04-08T00:29:29.554Z,17.07
2018-04-08T00:32:02.916Z,15.63
2018-04-08T00:34:35.568Z,13.60
2018-04-08T00:37:08.189Z,11.90
2018-04-08T00:39:40.810Z,13.10
2018-04-08T00:42:13.467Z,13.87
2018-04-08T00:44:46.200Z,11.57
2018-04-08T00:47:18.884Z,12.23
2018-04-08T00:49:51.519Z,13.83
2018-04-08T00:52:24.129Z,12.87
2018-04-08T00:54:56.756Z,13.50
2018-04-08T00:57:29.352Z,13.03
2018-04-08T01:00:02.004Z,12.77
2018-04-08T01:02:34.600Z,13.97
2018-04-08T01:05:07.218Z,15.03
2018-04-08T01:07:39.820Z,12.53
2018-04-08T01:10:13.252Z,9.67
2018-04-08T01:12:46.638Z,12.40
2018-04-08T01:15:20.045Z,10.97
2018-04-08T01:17:52.635Z,10.83
2018-04-08T01:20:25.265Z,11.43
2018-04-08T01:22:57.869Z,14.23
2018-04-08T01:25:30.512Z,12.57
2018-04-08T01:28:03.107Z,10.33
2018-04-08T01:30:35.725Z,11.73
2018-04-08T01:33:09.149Z,14.47
2018-04-08T01:35:41.797Z,11.87
2018-04-08T01:38:14.402Z,12.80
2018-04-08T01:40:47.836Z,10.53
2018-04-08T01:43:20.437Z,10.53
2018-04-08T01:45:53.077Z,10.87
2018-04-08T01:48:25.667Z,11.73
2018-04-08T01:50:58.305Z,12.80
2018-04-08T01:53:30.900Z,12.13
2018-04-08T01:56:03.511Z,12.83
2018-04-08T01:58:36.114Z,12.87
2018-04-08T02:01:09.498Z,9.47
2018-04-08T02:03:42.116Z,10.00
2018-04-08T02:06:14.740Z,12.47
2018-04-08T02:08:47.344Z,11.50
2018-04-08T02:11:20.754Z,9.90
2018-04-08T02:13:54.121Z,10.43
2018-04-08T02:16:26.770Z,12.13
2018-04-08T02:18:59.378Z,9.93
2018-04-08T02:21:32.000Z,10.50
2018-04-08T02:24:04.601Z,7.97
2018-04-08T02:26:37.221Z,14.07
2018-04-08T02:29:10.593Z,13.13
2018-04-08T02:31:43.223Z,9.10
2018-04-08T02:34:16.591Z,11.40
2018-04-08T02:36:49.213Z,9.07
2018-04-08T02:39:22.578Z,11.67
2018-04-08T02:41:55.210Z,14.70
2018-04-08T02:44:27.834Z,9.87
2018-04-08T02:47:00.460Z,9.80
2018-04-08T02:49:33.062Z,8.53
2018-04-08T02:52:05.678Z,9.87
2018-04-08T02:54:39.041Z,8.93
2018-04-08T02:57:12.457Z,9.57
2018-04-08T02:59:45.062Z,9.67
2018-04-08T03:02:17.710Z,11.03
2018-04-08T03:04:50.316Z,12.23
2018-04-08T03:07:22.937Z,8.43
2018-04-08T03:09:55.537Z,12.33
2018-04-08T03:12:28.156Z,9.53
2018-04-08T03:15:01.529Z,8.50
2018-04-08T03:17:34.172Z,10.93
2018-04-08T03:20:06.778Z,12.17
2018-04-08T03:22:39.426Z,9.53
2018-04-08T03:25:12.028Z,10.40
2018-04-08T03:27:45.417Z,11.57
2018-04-08T03:30:18.018Z,11.50
2018-04-08T03:32:51.426Z,9.83
2018-04-08T03:35:24.017Z,9.93
2018-04-08T03:37:56.649Z,9.20
2018-04-08T03:40:29.262Z,11.43
2018-04-08T03:43:01.895Z,9.47
2018-04-08T03:45:34.488Z,9.77
2018-04-08T03:48:07.903Z,10.10
2018-04-08T03:50:41.276Z,11.33
2018-04-08T03:53:14.020Z,10.57
2018-04-08T03:55:46.626Z,11.13
2018-04-08T03:58:19.252Z,11.93
2018-04-08T04:00:51.862Z,11.80
2018-04-08T04:03:24.506Z,14.87
2018-04-08T04:05:57.114Z,13.27
2018-04-08T04:08:29.741Z,12.97
2018-04-08T04:11:02.344Z,11.73
2018-04-08T04:13:35.748Z,14.83
2018-04-08T04:16:08.349Z,16.30
2018-04-08T04:18:53.693Z,14.37
2018-04-08T04:21:38.318Z,12.53
2018-04-08T04:24:23.694Z,11.00
2018-04-08T04:26:56.301Z,10.23
2018-04-08T04:29:29.698Z,11.67
2018-04-08T04:32:02.345Z,12.00
2018-04-08T04:34:34.972Z,13.63
2018-04-08T04:37:07.574Z,13.70
2018-04-08T04:39:40.216Z,10.57
2018-04-08T04:42:12.824Z,11.77
2018-04-08T04:44:45.449Z,15.40
2018-04-08T04:47:18.048Z,12.13
2018-04-08T04:49:51.457Z,14.53
2018-04-08T04:52:24.821Z,11.87
2018-04-08T04:54:57.455Z,14.47
2018-04-08T04:57:30.820Z,14.47
2018-04-08T05:00:03.462Z,13.23
2018-04-08T05:02:36.834Z,10.47
2018-04-08T05:05:09.456Z,10.93
2018-04-08T05:07:42.830Z,19.00
2018-04-08T05:10:15.462Z,14.00
2018-04-08T05:12:48.824Z,13.23
2018-04-08T05:15:21.445Z,11.37
2018-04-08T05:17:54.053Z,11.83
2018-04-08T05:20:27.442Z,11.63
2018-04-08T05:23:00.049Z,13.20
2018-04-08T05:25:33.469Z,12.77
2018-04-08T05:28:06.892Z,10.70
2018-04-08T05:30:39.480Z,10.97
2018-04-08T05:33:12.081Z,12.17
2018-04-08T05:35:44.718Z,9.73
2018-04-08T05:38:18.293Z,12.20
2018-04-08T05:40:50.962Z,10.83
2018-04-08T05:43:24.326Z,10.07
2018-04-08T05:45:56.965Z,13.03
2018-04-08T05:48:29.579Z,17.07
2018-04-08T05:51:02.207Z,11.87
2018-04-08T05:53:36.325Z,11.07
2018-04-08T05:56:08.969Z,12.67
2018-04-08T05:58:42.342Z,11.43
2018-04-08T06:01:14.982Z,12.17
2018-04-08T06:03:47.613Z,11.83
2018-04-08T06:06:20.244Z,12.07
2018-04-08T06:08:53.604Z,12.00
2018-04-08T06:11:26.233Z,13.67
2018-04-08T06:13:58.837Z,13.17
2018-04-08T06:16:32.249Z,11.67
2018-04-08T06:19:05.613Z,9.53
2018-04-08T06:21:38.233Z,13.43
2018-04-08T06:24:10.848Z,11.50
2018-04-08T06:26:43.495Z,13.10
2018-04-08T06:29:16.099Z,13.33
2018-04-08T06:31:48.745Z,9.93
2018-04-08T06:34:21.337Z,9.33
2018-04-08T06:36:53.963Z,11.37
2018-04-08T06:39:26.565Z,10.27
2018-04-08T06:41:59.198Z,9.50
2018-04-08T06:44:31.798Z,11.53
2018-04-08T06:47:04.437Z,16.17
2018-04-08T06:49:37.041Z,9.30
2018-04-08T06:52:10.450Z,9.43
2018-04-08T06:54:43.828Z,10.33
2018-04-08T06:57:16.501Z,11.80
2018-04-08T06:59:49.116Z,10.83
2018-04-08T07:02:21.754Z,10.17
2018-04-08T07:04:54.363Z,11.10
2018-04-08T07:07:27.002Z,8.40
2018-04-08T07:09:59.601Z,9.73
2018-04-08T07:12:32.219Z,9.77
2018-04-08T07:15:05.581Z,8.77
2018-04-08T07:17:38.201Z,8.97
2018-04-08T07:20:11.581Z,10.57
2018-04-08T07:22:44.224Z,9.63
2018-04-08T07:25:16.826Z,9.90
2018-04-08T07:27:49.449Z,8.50
2018-04-08T07:30:22.062Z,11.80
2018-04-08T07:32:54.702Z,11.07
2018-04-08T07:35:27.357Z,11.87
2018-04-08T07:38:00.070Z,9.97
2018-04-08T07:40:32.645Z,10.27
2018-04-08T07:43:06.053Z,8.60
2018-04-08T07:45:39.415Z,9.50
2018-04-08T07:48:12.837Z,10.00
2018-04-08T07:50:45.450Z,13.77
2018-04-08T07:53:18.073Z,9.70
2018-04-08T07:55:51.438Z,8.47
2018-04-08T07:58:24.061Z,9.60
2018-04-08T08:00:57.428Z,8.50
2018-04-08T08:03:30.066Z,8.67
2018-04-08T08:06:03.428Z,9.07
2018-04-08T08:08:36.054Z,10.47
2018-04-08T08:11:09.418Z,9.77
2018-04-08T08:13:42.062Z,7.77
2018-04-08T08:16:15.434Z,8.93
2018-04-08T08:18:48.062Z,11.00
2018-04-08T08:21:21.429Z,10.37
2018-04-08T08:23:54.049Z,10.17
2018-04-08T08:26:26.645Z,9.97
2018-04-08T08:28:59.265Z,10.00
2018-04-08T08:31:31.863Z,9.67
2018-04-08T08:34:04.478Z,8.87
2018-04-08T08:36:37.079Z,8.23
2018-04-08T08:39:09.723Z,8.43
2018-04-08T08:41:42.364Z,9.03
2018-04-08T08:44:14.980Z,11.73
2018-04-08T08:46:47.585Z,9.60
2018-04-08T08:49:20.983Z,7.97
2018-04-08T08:51:53.584Z,8.70
2018-04-08T08:54:26.965Z,8.87
2018-04-08T08:56:59.571Z,8.87
2018-04-08T08:59:32.204Z,10.20
2018-04-08T09:02:04.812Z,11.07
2018-04-08T09:04:37.429Z,9.33
2018-04-08T09:07:12.679Z,9.77
2018-04-08T09:09:45.311Z,12.87
2018-04-08T09:12:18.686Z,7.70
2018-04-08T09:14:51.306Z,6.40
2018-04-08T09:17:24.678Z,12.97
2018-04-08T09:19:57.301Z,10.13
2018-04-08T09:22:35.116Z,9.17
2018-04-08T09:25:09.421Z,7.90
2018-04-08T09:27:42.024Z,10.60
2018-04-08T09:30:14.641Z,8.47
2018-04-08T09:32:48.009Z,10.27
2018-04-08T09:35:20.633Z,8.30
2018-04-08T09:37:53.234Z,9.67
2018-04-08T09:40:26.628Z,10.97
2018-04-08T09:42:59.232Z,7.53
2018-04-08T09:45:32.626Z,9.17
2018-04-08T09:48:05.224Z,7.60
2018-04-08T09:50:37.837Z,8.90
2018-04-08T09:53:11.209Z,7.63
2018-04-08T09:55:43.837Z,8.53
2018-04-08T09:58:33.026Z,8.17
2018-04-08T10:06:15.906Z,8.17
2018-04-08T10:08:49.265Z,9.33
2018-04-08T10:11:21.889Z,7.47
2018-04-08T10:13:54.490Z,7.43
2018-04-08T10:16:27.884Z,7.83
2018-04-08T10:19:00.489Z,9.53
2018-04-08T10:21:33.877Z,7.43
2018-04-08T10:24:06.494Z,7.23
2018-04-08T10:26:39.883Z,6.87
2018-04-08T10:29:12.515Z,8.03
2018-04-08T10:31:45.142Z,7.10
2018-04-08T10:34:17.745Z,7.60
2018-04-08T10:36:50.370Z,7.47
2018-04-08T10:39:23.733Z,6.80
2018-04-08T10:41:56.353Z,7.00
2018-04-08T10:44:28.954Z,9.00
2018-04-08T10:47:01.580Z,6.00
2018-04-08T10:49:34.184Z,7.67
2018-04-08T10:52:06.800Z,7.73
2018-04-08T10:54:39.400Z,6.27
2018-04-08T10:57:12.017Z,5.33
2018-04-08T10:59:45.393Z,5.80
2018-04-08T11:02:18.022Z,7.70
2018-04-08T11:04:51.413Z,5.60
2018-04-08T11:07:24.035Z,6.97
2018-04-08T11:09:56.644Z,6.87
2018-04-08T11:12:29.266Z,6.53
2018-04-08T11:15:01.880Z,5.60
2018-04-08T11:17:34.500Z,5.50
2018-04-08T11:20:07.096Z,6.90
2018-04-08T11:22:39.717Z,5.27
2018-04-08T11:25:12.321Z,6.60
2018-04-08T11:27:44.950Z,5.00
2018-04-08T11:30:18.333Z,5.33
2018-04-08T11:32:50.941Z,7.10
2018-04-08T11:35:23.563Z,5.27
2018-04-08T11:37:56.169Z,7.87
2018-04-08T11:40:28.813Z,7.23
2018-04-08T11:43:01.411Z,5.77
2018-04-08T11:45:34.037Z,6.20
2018-04-08T11:48:06.642Z,6.50
2018-04-08T11:50:39.266Z,7.07
2018-04-08T11:53:11.873Z,5.63
2018-04-08T11:55:44.505Z,5.17
2018-04-08T11:58:17.115Z,6.00
2018-04-08T12:00:49.737Z,5.50
2018-04-08T12:03:22.341Z,6.20
2018-04-08T12:05:54.965Z,5.67
2018-04-08T12:08:27.566Z,5.80
2018-04-08T12:11:00.189Z,5.73
2018-04-08T12:13:32.794Z,7.30
2018-04-08T12:16:05.418Z,7.03
2018-04-08T12:18:38.792Z,6.47
2018-04-08T12:21:11.412Z,12.17
2018-04-08T12:23:44.777Z,6.87
2018-04-08T12:26:23.069Z,5.07
2018-04-08T16:02:05.334Z,6.17
2018-04-08T16:04:37.961Z,6.93
2018-04-08T16:07:10.561Z,6.53
2018-04-08T16:09:44.013Z,6.70
2018-04-08T16:12:16.621Z,6.37
2018-04-08T16:14:49.248Z,7.00
2018-04-08T16:17:21.869Z,13.60
2018-04-08T16:19:55.279Z,13.13
2018-04-08T16:22:28.645Z,8.13
2018-04-08T16:25:01.281Z,7.53
2018-04-08T16:27:33.879Z,5.77
2018-04-08T16:30:06.502Z,6.07
2018-04-08T16:32:39.097Z,6.63
2018-04-08T16:35:11.715Z,7.07
2018-04-08T16:37:44.340Z,8.20
2018-04-08T16:40:16.966Z,6.63
2018-04-08T16:42:49.574Z,6.93
2018-04-08T16:45:22.194Z,7.33
2018-04-08T16:47:55.563Z,7.10
2018-04-08T16:50:28.185Z,11.77
2018-04-08T16:53:01.562Z,7.67
2018-04-08T16:55:34.200Z,7.37
2018-04-08T16:58:07.571Z,7.73
2018-04-08T17:00:40.189Z,7.07
2018-04-08T17:03:12.798Z,7.23
2018-04-08T17:05:46.195Z,7.13
2018-04-08T17:08:18.798Z,6.70
2018-04-08T17:10:52.198Z,7.10
2018-04-08T17:13:25.568Z,6.87
2018-04-08T17:15:58.201Z,7.30
2018-04-08T17:18:31.569Z,7.00
2018-04-08T17:21:04.212Z,7.07
2018-04-08T17:23:36.817Z,7.43
2018-04-08T17:26:09.446Z,10.27
2018-04-08T17:28:42.054Z,16.90
2018-04-08T17:31:14.689Z,10.47
2018-04-08T17:33:47.294Z,8.57
2018-04-08T17:36:19.930Z,13.27
2018-04-08T17:38:52.530Z,10.03
2018-04-08T17:41:25.153Z,9.20
2018-04-08T17:43:57.757Z,10.10
2018-04-08T17:46:30.387Z,7.40
2018-04-08T17:49:03.000Z,8.07
2018-04-08T17:51:36.397Z,9.77
2018-04-08T17:54:08.999Z,7.83
2018-04-08T17:56:41.643Z,10.57
2018-04-08T17:59:14.266Z,12.47
2018-04-08T18:01:46.913Z,9.90
2018-04-08T18:04:19.517Z,8.60
2018-04-08T18:06:52.142Z,7.83
2018-04-08T18:09:24.745Z,10.63
2018-04-08T18:11:57.370Z,11.57
2018-04-08T18:14:30.746Z,8.83
2018-04-08T18:17:03.376Z,8.63
2018-04-08T18:19:36.753Z,12.47
2018-04-08T18:22:09.376Z,16.17
2018-04-08T18:24:42.003Z,16.17
2018-04-08T18:27:14.646Z,10.97
2018-04-08T18:29:49.026Z,11.80
2018-04-08T18:32:21.653Z,10.33
2018-04-08T18:34:54.253Z,14.77
2018-04-08T18:37:26.874Z,9.83
2018-04-08T18:39:59.479Z,13.47
2018-04-08T18:42:32.126Z,15.70
2018-04-08T18:45:04.730Z,11.87
2018-04-08T18:47:37.373Z,14.03
2018-04-08T18:50:09.970Z,14.00
2018-04-08T18:52:42.618Z,22.20
2018-04-08T18:55:16.053Z,12.90
2018-04-08T18:57:48.716Z,12.20
2018-04-08T19:00:22.088Z,17.13
2018-04-08T19:02:54.719Z,31.97
2018-04-08T19:05:28.090Z,36.90
2018-04-08T19:08:00.745Z,72.63
2018-04-08T19:10:33.349Z,56.33
2018-04-08T19:13:05.978Z,38.50
2018-04-08T19:15:38.586Z,28.53
2018-04-08T19:18:11.994Z,20.30
2018-04-08T19:20:45.381Z,31.27
2018-04-08T19:23:18.030Z,31.57
2018-04-08T19:25:51.409Z,17.53
2018-04-08T19:28:24.805Z,15.53
2018-04-08T19:30:57.458Z,38.93
2018-04-08T19:33:30.106Z,25.93
2018-04-08T19:36:02.777Z,15.20
2018-04-08T19:38:36.172Z,20.90
2018-04-08T19:41:09.044Z,11.60
2018-04-08T19:43:41.860Z,56.23
2018-04-08T19:46:14.703Z,30.43
2018-04-08T19:48:47.452Z,38.63
2018-04-08T19:51:20.064Z,23.43
2018-04-08T19:53:52.714Z,23.53
2018-04-08T19:56:25.330Z,18.07
2018-04-08T19:58:57.959Z,11.70
2018-04-08T20:01:31.332Z,11.83
2018-04-08T20:04:03.983Z,12.50
2018-04-08T20:06:36.590Z,15.07
2018-04-08T20:09:09.218Z,19.27
2018-04-08T20:11:41.842Z,19.13
2018-04-08T20:14:14.513Z,30.17
2018-04-08T20:16:47.912Z,37.13
2018-04-08T20:19:20.545Z,49.87
2018-04-08T20:21:53.155Z,47.17
2018-04-08T20:24:25.782Z,60.23
2018-04-08T20:26:58.390Z,70.07
2018-04-08T20:29:31.816Z,37.47
2018-04-08T20:32:05.178Z,55.37
2018-04-08T20:34:37.808Z,76.30
2018-04-08T20:37:11.201Z,74.97
2018-04-08T20:39:44.637Z,32.83
2018-04-08T20:42:17.254Z,22.27
2018-04-08T20:44:49.890Z,14.50
2018-04-08T20:47:22.506Z,20.63
2018-04-08T20:49:55.929Z,22.23
2018-04-08T20:52:28.531Z,19.60
2018-04-08T20:55:01.163Z,19.90
2018-04-08T20:57:33.778Z,17.40
2018-04-08T21:00:06.404Z,16.23
2018-04-08T21:02:39.009Z,18.17
2018-04-08T21:05:11.657Z,19.70
2018-04-08T21:07:45.054Z,24.33
2018-04-08T21:10:17.693Z,22.60
2018-04-08T21:12:50.340Z,25.13
2018-04-08T21:15:22.951Z,26.03
2018-04-08T21:17:56.323Z,21.40
2018-04-08T21:20:28.957Z,19.80
2018-04-08T21:23:01.578Z,20.33
2018-04-08T21:25:34.220Z,21.40
2018-04-08T21:28:07.599Z,22.03
2018-04-08T21:30:40.226Z,29.07
2018-04-08T21:33:13.616Z,26.63
2018-04-08T21:35:46.272Z,14.13
2018-04-08T21:38:18.883Z,20.77
2018-04-08T21:40:51.514Z,22.07
2018-04-08T21:43:24.889Z,18.67
2018-04-08T21:45:57.521Z,17.67
2018-04-08T21:48:30.910Z,18.83
2018-04-08T21:51:03.539Z,18.80
2018-04-08T21:53:36.150Z,14.00
2018-04-08T21:56:08.798Z,14.47
2018-04-08T21:58:42.174Z,16.63
2018-04-08T22:01:14.831Z,14.80
2018-04-08T22:03:47.441Z,17.97
2018-04-08T22:06:20.095Z,13.50
2018-04-08T22:08:53.465Z,14.90
2018-04-08T22:11:26.085Z,16.17
2018-04-08T22:13:59.463Z,14.07
2018-04-08T22:16:32.097Z,16.83
2018-04-08T22:19:05.469Z,16.73
2018-04-08T22:21:38.105Z,20.70
2018-04-08T22:24:10.721Z,15.57
2018-04-08T22:26:43.379Z,14.80
2018-04-08T22:29:16.761Z,17.80
2018-04-08T22:31:49.410Z,19.33
2018-04-08T22:34:22.020Z,12.73
2018-04-08T22:36:54.670Z,14.73
2018-04-08T22:39:27.289Z,15.07
2018-04-08T22:41:59.952Z,12.73
2018-04-08T22:44:32.569Z,19.17
2018-04-08T22:47:05.196Z,14.13
2018-04-08T22:49:37.798Z,14.47
2018-04-08T22:52:10.419Z,15.37
2018-04-08T22:54:43.030Z,15.00
2018-04-08T22:57:15.668Z,16.60
2018-04-08T22:59:48.285Z,18.53
2018-04-08T23:02:21.677Z,16.77
2018-04-08T23:04:54.279Z,17.93
2018-04-08T23:07:27.666Z,12.90
2018-04-08T23:10:00.279Z,13.87
2018-04-08T23:12:33.777Z,23.40
2018-04-08T23:15:06.398Z,14.13
2018-04-08T23:17:39.028Z,14.90
2018-04-08T23:20:11.644Z,15.97
2018-04-08T23:22:44.289Z,15.23
2018-04-08T23:25:16.905Z,14.97
2018-04-08T23:27:49.533Z,17.00
2018-04-08T23:30:22.145Z,16.73
2018-04-08T23:32:55.541Z,13.50
2018-04-08T23:35:28.902Z,13.97
2018-04-08T23:38:01.532Z,15.13
2018-04-08T23:40:34.130Z,16.77
2018-04-08T23:43:07.545Z,14.10
2018-04-08T23:45:40.923Z,15.23
2018-04-08T23:48:13.567Z,18.97
2018-04-08T23:50:46.186Z,15.27
2018-04-08T23:53:18.834Z,15.10
2018-04-08T23:55:52.194Z,16.10
2018-04-08T23:58:25.582Z,18.07
